Time;durP1;ratioP1;P1;durP2;ratioP2;P2;SDS_P1;SDS_P2;PMS_P1;PMS_P2;Temp;Humidity;BMP_temperature;BMP_pressure;BME280_temperature;BME280_humidity;BME280_pressure;Samples;Min_cycle;Max_cycle;Signal;HPM_P1;HPM_P2
2020/12/03 00:00:49;;;;;;;16.30;13.57;;;6.60;99.90;;;;;;2121485;27;20552;-78
2020/12/03 00:01:49;;;;;;;16.42;14.02;;;6.60;99.90;;;;;;2121554;27;20027;-78
2020/12/03 00:02:50;;;;;;;15.35;13.25;;;6.50;99.90;;;;;;2121542;27;20498;-80
2020/12/03 00:03:57;;;;;;;18.15;13.48;;;6.50;99.90;;;;;;2112295;28;20419;-81
2020/12/03 00:04:57;;;;;;;17.88;13.70;;;6.50;99.90;;;;;;2113582;28;20051;-81
2020/12/03 00:06:20;;;;;;;15.93;13.77;;;6.50;99.90;;;;;;2121850;27;20023;-79
2020/12/03 00:07:23;;;;;;;15.20;13.15;;;6.50;99.90;;;;;;2121218;27;20034;-78
2020/12/03 00:08:24;;;;;;;15.25;13.52;;;6.50;99.90;;;;;;2121535;27;20509;-77
2020/12/03 00:09:25;;;;;;;17.52;14.07;;;6.50;99.90;;;;;;2112549;28;20106;-82
2020/12/03 00:10:26;;;;;;;17.85;14.82;;;6.50;99.90;;;;;;2103946;28;20170;-78
2020/12/03 00:11:30;;;;;;;15.70;14.00;;;6.50;99.90;;;;;;2112147;28;20019;-80
2020/12/03 00:12:31;;;;;;;17.88;14.20;;;6.50;99.90;;;;;;2121758;27;20134;-78
2020/12/03 00:13:33;;;;;;;14.13;12.55;;;6.50;99.90;;;;;;2121447;27;20090;-80
2020/12/03 00:14:34;;;;;;;16.73;14.23;;;6.60;99.90;;;;;;2121426;28;20035;-78
2020/12/03 00:15:34;;;;;;;15.85;13.52;;;6.60;99.90;;;;;;2121579;27;20347;-79
2020/12/03 00:16:35;;;;;;;15.75;14.05;;;6.60;99.90;;;;;;2121638;27;20414;-77
2020/12/03 00:17:36;;;;;;;16.55;14.07;;;6.60;99.90;;;;;;2112322;28;20089;-81
2020/12/03 00:18:38;;;;;;;17.85;14.45;;;6.60;99.90;;;;;;2112557;28;20024;-80
2020/12/03 00:19:38;;;;;;;16.33;13.25;;;6.60;99.90;;;;;;2121407;27;20019;-80
2020/12/03 00:20:39;;;;;;;15.43;12.93;;;6.60;99.90;;;;;;2121757;27;20034;-77
2020/12/03 00:21:50;;;;;;;15.10;13.48;;;6.60;99.90;;;;;;2121370;28;20023;-79
2020/12/03 00:22:51;;;;;;;15.85;13.68;;;6.60;99.90;;;;;;2121740;28;20292;-80
2020/12/03 00:23:51;;;;;;;19.30;15.10;;;6.60;99.90;;;;;;2121473;28;20031;-81
2020/12/03 00:24:52;;;;;;;16.20;14.05;;;6.60;99.90;;;;;;2121483;28;20053;-78
2020/12/03 00:25:54;;;;;;;15.93;13.95;;;6.60;99.90;;;;;;2112382;28;20246;-81
2020/12/03 00:26:55;;;;;;;16.48;14.02;;;6.60;99.90;;;;;;2112833;28;20062;-79
2020/12/03 00:27:56;;;;;;;17.02;14.40;;;6.60;99.90;;;;;;2121658;28;20121;-81
2020/12/03 00:28:58;;;;;;;16.98;14.77;;;6.60;99.90;;;;;;2121616;28;20371;-79
2020/12/03 00:29:59;;;;;;;16.30;14.13;;;6.60;99.90;;;;;;2121691;28;20027;-81
2020/12/03 00:31:00;;;;;;;17.75;15.05;;;6.70;99.90;;;;;;2121482;28;20371;-80
2020/12/03 00:32:00;;;;;;;17.85;14.43;;;6.70;99.90;;;;;;2111968;28;20460;-77
2020/12/03 00:33:01;;;;;;;19.30;15.20;;;6.70;99.90;;;;;;2112736;28;20124;-79
2020/12/03 00:34:06;;;;;;;18.17;15.30;;;6.60;99.90;;;;;;2121639;28;20015;-80
2020/12/03 00:35:06;;;;;;;16.00;14.02;;;6.70;99.90;;;;;;2112212;28;20066;-80
2020/12/03 00:36:07;;;;;;;13.95;12.32;;;6.70;99.90;;;;;;2112388;28;20024;-81
2020/12/03 00:37:07;;;;;;;16.10;14.32;;;6.70;99.90;;;;;;2121391;28;20038;-79
2020/12/03 00:38:08;;;;;;;19.02;14.75;;;6.70;99.90;;;;;;2121586;28;20031;-82
2020/12/03 00:39:11;;;;;;;16.83;13.55;;;6.70;99.90;;;;;;2121761;28;20046;-77
2020/12/03 00:40:12;;;;;;;18.52;15.27;;;6.70;99.90;;;;;;2121726;28;20043;-81
2020/12/03 00:41:13;;;;;;;16.75;14.77;;;6.70;99.90;;;;;;2121477;28;20121;-79
2020/12/03 00:42:14;;;;;;;15.88;14.18;;;6.70;99.90;;;;;;2112195;28;20027;-80
2020/12/03 00:43:16;;;;;;;17.48;14.70;;;6.60;99.90;;;;;;2112356;28;20050;-82
2020/12/03 00:44:18;;;;;;;18.23;15.27;;;6.70;99.90;;;;;;2112056;28;20024;-78
2020/12/03 00:45:18;;;;;;;17.40;15.10;;;6.60;99.90;;;;;;2112527;28;20031;-82
2020/12/03 00:46:19;;;;;;;19.60;16.73;;;6.70;99.90;;;;;;2112346;28;20269;-78
2020/12/03 00:47:19;;;;;;;17.38;15.15;;;6.60;99.90;;;;;;2112049;28;20024;-81
2020/12/03 00:48:20;;;;;;;17.30;13.88;;;6.60;99.90;;;;;;2112656;28;20063;-79
2020/12/03 00:49:20;;;;;;;17.80;15.85;;;6.60;99.90;;;;;;2112095;28;20024;-79
2020/12/03 00:50:21;;;;;;;17.08;15.15;;;6.60;99.90;;;;;;2112042;28;20369;-80
2020/12/03 00:51:23;;;;;;;17.58;15.13;;;6.60;99.90;;;;;;2120666;28;20493;-80
2020/12/03 00:52:23;;;;;;;15.80;13.57;;;6.60;99.90;;;;;;2122332;27;20071;-77
2020/12/03 00:53:24;;;;;;;18.63;15.57;;;6.60;99.90;;;;;;2123043;27;20084;-77
2020/12/03 00:54:24;;;;;;;15.90;14.15;;;6.60;99.90;;;;;;2123109;27;20023;-80
2020/12/03 00:55:25;;;;;;;20.40;15.80;;;6.70;99.90;;;;;;2123344;27;20075;-79
2020/12/03 00:56:25;;;;;;;20.50;16.60;;;6.70;99.90;;;;;;2113719;28;20020;-78
2020/12/03 00:57:26;;;;;;;17.42;15.05;;;6.70;99.90;;;;;;2113872;28;20054;-80
2020/12/03 00:58:26;;;;;;;17.70;15.73;;;6.70;99.90;;;;;;2123394;27;20027;-80
2020/12/03 00:59:27;;;;;;;19.65;16.42;;;6.70;99.90;;;;;;2113794;28;20149;-78
2020/12/03 01:00:27;;;;;;;22.92;17.55;;;6.70;99.90;;;;;;2105654;28;20095;-77
2020/12/03 01:01:28;;;;;;;19.50;16.13;;;6.70;99.90;;;;;;2113696;28;20054;-80
2020/12/03 01:02:29;;;;;;;20.33;16.13;;;6.70;99.90;;;;;;2123114;27;20035;-82
2020/12/03 01:03:29;;;;;;;17.48;14.88;;;6.70;99.90;;;;;;2113834;28;20077;-79
2020/12/03 01:04:30;;;;;;;20.13;16.25;;;6.70;99.90;;;;;;2114076;28;20031;-81
2020/12/03 01:05:30;;;;;;;21.27;18.15;;;6.70;99.90;;;;;;2123020;27;20303;-78
2020/12/03 01:06:31;;;;;;;18.08;15.70;;;6.70;99.90;;;;;;2123014;27;20470;-81
2020/12/03 01:07:31;;;;;;;19.23;16.10;;;6.70;99.90;;;;;;2113828;28;20048;-79
2020/12/03 01:08:32;;;;;;;18.60;15.90;;;6.70;99.90;;;;;;2113886;28;20491;-79
2020/12/03 01:09:36;;;;;;;19.25;16.90;;;6.70;99.90;;;;;;2122803;27;20026;-80
2020/12/03 01:10:36;;;;;;;19.70;17.05;;;6.70;99.90;;;;;;2123249;27;20023;-82
2020/12/03 01:11:37;;;;;;;18.70;16.23;;;6.70;99.90;;;;;;2122651;27;20377;-82
2020/12/03 01:12:38;;;;;;;20.70;16.95;;;6.70;99.90;;;;;;2123051;27;20035;-80
2020/12/03 01:13:38;;;;;;;19.58;16.90;;;6.70;99.90;;;;;;2123271;27;20115;-83
2020/12/03 01:14:39;;;;;;;18.88;16.80;;;6.70;99.90;;;;;;2122838;27;20106;-76
2020/12/03 01:15:41;;;;;;;21.70;17.55;;;6.70;99.90;;;;;;2122931;27;20019;-80
2020/12/03 01:16:41;;;;;;;19.50;16.75;;;6.70;99.90;;;;;;2123083;27;20026;-78
2020/12/03 01:17:42;;;;;;;18.27;16.27;;;6.70;99.90;;;;;;2122934;27;20019;-81
2020/12/03 01:18:43;;;;;;;19.02;16.45;;;6.70;99.90;;;;;;2123026;27;20027;-79
2020/12/03 01:19:44;;;;;;;19.65;16.38;;;6.70;99.90;;;;;;2113504;28;20028;-78
2020/12/03 01:20:45;;;;;;;17.98;16.08;;;6.70;99.90;;;;;;2113668;28;20031;-80
2020/12/03 01:21:45;;;;;;;23.23;17.50;;;6.70;99.90;;;;;;2122816;27;20050;-80
2020/12/03 01:22:46;;;;;;;22.08;18.17;;;6.70;99.90;;;;;;2122852;27;20087;-76
2020/12/03 01:23:48;;;;;;;20.88;17.45;;;6.70;99.90;;;;;;2123110;27;20023;-76
2020/12/03 01:24:49;;;;;;;21.23;17.77;;;6.70;99.90;;;;;;2122891;27;20579;-79
2020/12/03 01:25:50;;;;;;;21.20;17.77;;;6.70;99.90;;;;;;2122750;27;20106;-77
2020/12/03 01:26:50;;;;;;;22.58;17.70;;;6.70;99.90;;;;;;2122536;27;20068;-79
2020/12/03 01:27:52;;;;;;;20.63;17.73;;;6.70;99.90;;;;;;2122826;27;20020;-78
2020/12/03 01:28:52;;;;;;;20.85;17.65;;;6.70;99.90;;;;;;2122674;27;20055;-79
2020/12/03 01:29:53;;;;;;;20.00;17.33;;;6.70;99.90;;;;;;2113495;28;20193;-76
2020/12/03 01:30:53;;;;;;;21.10;17.33;;;6.70;99.90;;;;;;2113393;28;20038;-83
2020/12/03 01:31:54;;;;;;;20.50;18.30;;;6.70;99.90;;;;;;2122672;27;20076;-81
2020/12/03 01:32:55;;;;;;;25.42;18.00;;;6.70;99.90;;;;;;2122602;27;20476;-81
2020/12/03 01:33:55;;;;;;;23.55;18.33;;;6.70;99.90;;;;;;2113628;28;20042;-78
2020/12/03 01:34:56;;;;;;;20.02;17.77;;;6.70;99.90;;;;;;2113536;28;20028;-80
2020/12/03 01:35:56;;;;;;;21.77;16.77;;;6.70;99.90;;;;;;2122988;27;20019;-79
2020/12/03 01:36:57;;;;;;;21.67;17.52;;;6.70;99.90;;;;;;2113723;28;20026;-78
2020/12/03 01:37:57;;;;;;;21.95;17.77;;;6.70;99.90;;;;;;2113636;28;20027;-81
2020/12/03 01:38:58;;;;;;;22.75;16.65;;;6.70;99.90;;;;;;2122458;27;20302;-81
2020/12/03 01:39:58;;;;;;;20.10;17.10;;;6.70;99.90;;;;;;2122290;27;20498;-79
2020/12/03 01:40:59;;;;;;;22.45;18.02;;;6.70;99.90;;;;;;2122639;27;20044;-80
2020/12/03 01:42:00;;;;;;;21.80;18.02;;;6.70;99.90;;;;;;2122908;27;20446;-80
2020/12/03 01:43:00;;;;;;;19.02;16.77;;;6.70;99.90;;;;;;2122472;27;20034;-78
2020/12/03 01:44:02;;;;;;;19.65;17.35;;;6.70;99.90;;;;;;2122832;27;20044;-81
2020/12/03 01:45:03;;;;;;;25.10;17.45;;;6.70;99.90;;;;;;2122383;27;20110;-80
2020/12/03 01:46:07;;;;;;;21.17;17.67;;;6.70;99.90;;;;;;2122752;27;20022;-80
2020/12/03 01:47:15;;;;;;;20.23;16.63;;;6.70;99.90;;;;;;2122599;27;20043;-77
2020/12/03 01:48:29;;;;;;;18.88;15.93;;;6.70;99.90;;;;;;2123051;27;20043;-79
2020/12/03 01:49:32;;;;;;;21.60;17.30;;;6.70;99.90;;;;;;2122757;27;20413;-78
2020/12/03 01:50:33;;;;;;;20.20;16.70;;;6.70;99.90;;;;;;2122428;27;20114;-80
2020/12/03 01:51:39;;;;;;;19.73;16.67;;;6.70;99.90;;;;;;2122147;27;20360;-81
2020/12/03 01:52:39;;;;;;;20.83;18.23;;;6.70;99.90;;;;;;2122798;27;20106;-80
2020/12/03 01:53:40;;;;;;;19.85;17.33;;;6.70;99.90;;;;;;2122629;27;20028;-82
2020/12/03 01:54:40;;;;;;;22.58;17.05;;;6.70;99.90;;;;;;2122803;27;20023;-81
2020/12/03 01:55:41;;;;;;;20.70;17.05;;;6.80;99.90;;;;;;2122524;27;20557;-81
2020/12/03 01:57:03;;;;;;;21.45;18.38;;;6.70;99.90;;;;;;2122696;27;20345;-81
2020/12/03 01:58:04;;;;;;;20.63;17.13;;;6.70;99.90;;;;;;2122513;27;20015;-79
2020/12/03 01:59:06;;;;;;;22.55;17.90;;;6.70;99.90;;;;;;2122537;27;20011;-78
2020/12/03 02:00:14;;;;;;;18.90;16.33;;;6.70;99.90;;;;;;2122806;27;20071;-78
2020/12/03 02:01:15;;;;;;;20.92;17.17;;;6.70;99.90;;;;;;2122721;27;20052;-79
2020/12/03 02:02:16;;;;;;;21.55;17.42;;;6.70;99.90;;;;;;2122125;27;20049;-79
2020/12/03 02:03:17;;;;;;;20.20;16.48;;;6.70;99.90;;;;;;2122145;27;20514;-80
2020/12/03 02:04:18;;;;;;;20.45;17.42;;;6.70;99.90;;;;;;2121522;27;20100;-78
2020/12/03 02:05:28;;;;;;;20.38;17.67;;;6.70;99.90;;;;;;2119019;27;20154;-77
2020/12/03 02:06:32;;;;;;;19.98;16.80;;;6.70;99.90;;;;;;2122226;27;20023;-77
2020/12/03 02:07:33;;;;;;;20.17;16.92;;;6.70;99.90;;;;;;2122289;27;20345;-79
2020/12/03 02:08:33;;;;;;;18.60;15.48;;;6.70;99.90;;;;;;2122591;27;20478;-79
2020/12/03 02:09:34;;;;;;;20.23;17.30;;;6.70;99.90;;;;;;2112893;28;20019;-82
2020/12/03 02:10:35;;;;;;;21.17;17.83;;;6.70;99.90;;;;;;2113729;28;20016;-79
2020/12/03 02:11:36;;;;;;;20.92;17.15;;;6.70;99.90;;;;;;2122306;27;20062;-78
2020/12/03 02:12:37;;;;;;;18.27;15.50;;;6.70;99.90;;;;;;2122858;27;20464;-77
2020/12/03 02:13:48;;;;;;;21.25;16.95;;;6.70;99.90;;;;;;2122469;27;20474;-79
2020/12/03 02:14:48;;;;;;;;;;;6.70;99.90;;;;;;2123036;27;20019;-79
2020/12/03 02:15:49;;;;;;;19.92;16.20;;;6.60;99.90;;;;;;2122602;27;19941;-80
2020/12/03 02:16:50;;;;;;;21.70;16.42;;;6.60;99.90;;;;;;2122590;27;20058;-81
2020/12/03 02:17:50;;;;;;;19.70;17.55;;;6.70;99.90;;;;;;2122706;27;20028;-76
2020/12/03 02:18:51;;;;;;;20.65;16.83;;;6.70;99.90;;;;;;2122559;27;20074;-77
2020/12/03 02:19:56;;;;;;;26.17;17.15;;;6.70;99.90;;;;;;2122366;27;20046;-77
2020/12/03 02:20:57;;;;;;;21.73;17.65;;;6.70;99.90;;;;;;2113483;28;20107;-79
2020/12/03 02:22:04;;;;;;;20.38;17.15;;;6.70;99.90;;;;;;2104725;28;20031;-77
2020/12/03 02:23:11;;;;;;;17.65;15.55;;;6.70;99.90;;;;;;2114408;27;20479;-78
2020/12/03 02:24:11;;;;;;;19.13;16.27;;;6.70;99.90;;;;;;2113249;28;20406;-79
2020/12/03 02:25:12;;;;;;;23.20;17.52;;;6.70;99.90;;;;;;2104990;28;20020;-79
2020/12/03 02:26:13;;;;;;;19.15;16.60;;;6.70;99.90;;;;;;2113001;28;20055;-79
2020/12/03 02:27:16;;;;;;;22.05;17.73;;;6.70;99.90;;;;;;2122357;27;20360;-76
2020/12/03 02:28:17;;;;;;;20.25;16.85;;;6.70;99.90;;;;;;2122520;27;20054;-77
2020/12/03 02:29:20;;;;;;;20.83;17.05;;;6.70;99.90;;;;;;2122340;27;20025;-79
2020/12/03 02:30:20;;;;;;;22.27;17.67;;;6.70;99.90;;;;;;2122548;27;20098;-79
2020/12/03 02:31:21;;;;;;;19.48;16.75;;;6.70;99.90;;;;;;2113197;28;20545;-77
2020/12/03 02:32:22;;;;;;;19.35;17.25;;;6.70;99.90;;;;;;2112902;28;20081;-81
2020/12/03 02:33:22;;;;;;;18.00;16.05;;;6.70;99.90;;;;;;2122390;27;20011;-77
2020/12/03 02:34:23;;;;;;;20.00;17.13;;;6.70;99.90;;;;;;2113269;28;20499;-78
2020/12/03 02:35:24;;;;;;;19.60;17.45;;;6.70;99.90;;;;;;2113457;28;20023;-78
2020/12/03 02:36:24;;;;;;;19.27;17.10;;;6.70;99.90;;;;;;2122454;27;20154;-81
2020/12/03 02:37:25;;;;;;;19.58;16.33;;;6.70;99.90;;;;;;2122319;27;20034;-78
2020/12/03 02:38:29;;;;;;;19.15;16.95;;;6.70;99.90;;;;;;2113442;28;20023;-80
2020/12/03 02:39:32;;;;;;;21.13;16.90;;;6.70;99.90;;;;;;2112711;28;20047;-81
2020/12/03 02:40:33;;;;;;;19.63;17.20;;;6.70;99.90;;;;;;2113812;27;20028;-77
2020/12/03 02:41:33;;;;;;;20.40;17.55;;;6.70;99.90;;;;;;2112825;28;20035;-79
2020/12/03 02:42:34;;;;;;;21.33;16.23;;;6.60;99.90;;;;;;2113304;28;20024;-80
2020/12/03 02:43:35;;;;;;;18.58;16.58;;;6.60;99.90;;;;;;2121950;27;20058;-81
2020/12/03 02:44:39;;;;;;;18.88;16.15;;;6.60;99.90;;;;;;2122816;27;20080;-79
2020/12/03 02:45:40;;;;;;;19.08;16.17;;;6.60;99.90;;;;;;2122368;27;20057;-81
2020/12/03 02:46:40;;;;;;;17.90;16.00;;;6.60;99.90;;;;;;2122227;27;20019;-77
2020/12/03 02:47:41;;;;;;;18.70;16.33;;;6.60;99.90;;;;;;2122118;27;20042;-77
2020/12/03 02:48:41;;;;;;;19.65;16.73;;;6.60;99.90;;;;;;2113244;28;20037;-80
2020/12/03 02:49:42;;;;;;;18.70;16.67;;;6.60;99.90;;;;;;2112634;28;20483;-81
2020/12/03 02:50:43;;;;;;;19.15;16.33;;;6.60;99.90;;;;;;2122365;27;20018;-79
2020/12/03 02:51:44;;;;;;;20.95;17.60;;;6.60;99.90;;;;;;2121630;27;20019;-76
2020/12/03 02:52:44;;;;;;;17.60;15.75;;;6.60;99.90;;;;;;2122382;27;20015;-76
2020/12/03 02:53:45;;;;;;;20.65;17.08;;;6.50;99.90;;;;;;2122294;27;20041;-80
2020/12/03 02:54:46;;;;;;;18.50;16.52;;;6.60;99.90;;;;;;2122161;27;20073;-79
2020/12/03 02:55:47;;;;;;;19.65;16.98;;;6.60;99.90;;;;;;2122082;27;20087;-76
2020/12/03 02:56:47;;;;;;;19.33;16.38;;;6.50;99.90;;;;;;2113377;28;20418;-80
2020/12/03 02:57:48;;;;;;;19.35;15.98;;;6.50;99.90;;;;;;2113058;28;20107;-79
2020/12/03 02:58:49;;;;;;;18.30;16.00;;;6.50;99.90;;;;;;2122185;27;20470;-80
2020/12/03 02:59:49;;;;;;;19.88;16.05;;;6.60;99.90;;;;;;2121998;27;20443;-80
2020/12/03 03:00:50;;;;;;;19.38;17.05;;;6.50;99.90;;;;;;2113721;28;20495;-79
2020/12/03 03:01:50;;;;;;;18.90;16.77;;;6.60;99.90;;;;;;2113559;28;20031;-80
2020/12/03 03:02:51;;;;;;;20.77;17.05;;;6.60;99.90;;;;;;2113565;28;20485;-78
2020/12/03 03:03:51;;;;;;;19.50;16.25;;;6.60;99.90;;;;;;2113867;28;20105;-78
2020/12/03 03:04:52;;;;;;;19.13;16.63;;;6.60;99.90;;;;;;2123003;27;20023;-80
2020/12/03 03:05:52;;;;;;;18.90;16.23;;;6.60;99.90;;;;;;2122999;27;20471;-78
2020/12/03 03:06:54;;;;;;;19.00;16.92;;;6.60;99.90;;;;;;2113858;28;20455;-78
2020/12/03 03:07:54;;;;;;;18.67;15.98;;;6.50;99.90;;;;;;2113683;28;20016;-80
2020/12/03 03:08:55;;;;;;;18.77;16.77;;;6.50;99.90;;;;;;2123153;27;20047;-80
2020/12/03 03:09:56;;;;;;;19.70;16.95;;;6.60;99.90;;;;;;2113600;28;20051;-77
2020/12/03 03:10:57;;;;;;;18.33;16.40;;;6.60;99.90;;;;;;2113738;28;20038;-77
2020/12/03 03:11:57;;;;;;;19.73;17.35;;;6.60;99.90;;;;;;2122663;27;20015;-80
2020/12/03 03:12:58;;;;;;;19.85;16.88;;;6.60;99.90;;;;;;2122899;27;20023;-75
2020/12/03 03:14:03;;;;;;;17.73;15.40;;;6.60;99.90;;;;;;2122459;27;20019;-81
2020/12/03 03:15:04;;;;;;;19.35;16.05;;;6.60;99.90;;;;;;2121975;27;20054;-81
2020/12/03 03:16:05;;;;;;;18.00;16.02;;;6.60;99.90;;;;;;2122830;27;20072;-80
2020/12/03 03:17:06;;;;;;;17.77;15.25;;;6.60;99.90;;;;;;2122927;27;20023;-82
2020/12/03 03:18:07;;;;;;;27.58;16.35;;;6.60;99.90;;;;;;2122848;27;20034;-80
2020/12/03 03:19:08;;;;;;;19.63;16.67;;;6.60;99.90;;;;;;2113765;28;20019;-77
2020/12/03 03:20:08;;;;;;;18.10;16.08;;;6.60;99.90;;;;;;2113674;28;20016;-80
2020/12/03 03:21:10;;;;;;;20.70;16.08;;;6.70;99.90;;;;;;2122692;27;20492;-77
2020/12/03 03:22:10;;;;;;;16.60;14.88;;;6.70;99.90;;;;;;2122720;27;20022;-80
2020/12/03 03:23:11;;;;;;;18.20;15.85;;;6.60;99.90;;;;;;2122871;27;20102;-78
2020/12/03 03:24:12;;;;;;;16.98;15.18;;;6.60;99.90;;;;;;2122988;27;20497;-77
2020/12/03 03:25:13;;;;;;;17.73;14.98;;;6.60;99.90;;;;;;2122786;27;20019;-82
2020/12/03 03:26:15;;;;;;;16.15;14.45;;;6.60;99.90;;;;;;2113753;28;20028;-80
2020/12/03 03:27:15;;;;;;;17.08;14.63;;;6.60;99.90;;;;;;2105155;28;20099;-79
2020/12/03 03:28:16;;;;;;;17.83;15.93;;;6.60;99.90;;;;;;2113977;28;20011;-78
2020/12/03 03:29:17;;;;;;;19.42;16.27;;;6.60;99.90;;;;;;2122533;27;20026;-79
2020/12/03 03:30:19;;;;;;;19.23;16.52;;;6.60;99.90;;;;;;2122597;27;20486;-79
2020/12/03 03:31:20;;;;;;;20.05;15.98;;;6.60;99.90;;;;;;2122064;27;20501;-82
2020/12/03 03:32:20;;;;;;;17.50;15.23;;;6.70;99.90;;;;;;2122495;27;20027;-82
2020/12/03 03:33:21;;;;;;;17.83;15.75;;;6.60;99.90;;;;;;2122347;27;20120;-77
2020/12/03 03:34:22;;;;;;;18.63;16.45;;;6.70;99.90;;;;;;2122690;27;20058;-80
2020/12/03 03:35:23;;;;;;;18.33;15.95;;;6.70;99.90;;;;;;2122755;27;20019;-81
2020/12/03 03:36:23;;;;;;;17.17;15.40;;;6.70;99.90;;;;;;2122689;27;20048;-80
2020/12/03 03:37:24;;;;;;;30.02;16.67;;;6.70;99.90;;;;;;2113228;28;20076;-81
2020/12/03 03:38:24;;;;;;;17.70;15.90;;;6.70;99.90;;;;;;2105445;28;20030;-82
2020/12/03 03:39:25;;;;;;;17.00;15.20;;;6.70;99.90;;;;;;2113390;28;20023;-77
2020/12/03 03:40:26;;;;;;;16.67;14.88;;;6.70;99.90;;;;;;2122596;27;20085;-80
2020/12/03 03:41:27;;;;;;;19.48;16.75;;;6.70;99.90;;;;;;2122293;27;20034;-79
2020/12/03 03:42:27;;;;;;;16.40;14.70;;;6.70;99.90;;;;;;2122786;27;20027;-79
2020/12/03 03:43:28;;;;;;;17.17;15.32;;;6.70;99.90;;;;;;2122283;27;20479;-77
2020/12/03 03:44:29;;;;;;;17.83;15.05;;;6.70;99.90;;;;;;2122735;27;20027;-81
2020/12/03 03:45:29;;;;;;;18.02;15.90;;;6.70;99.90;;;;;;2122560;27;20029;-78
2020/12/03 03:46:30;;;;;;;18.98;16.98;;;6.70;99.90;;;;;;2122976;27;20064;-77
2020/12/03 03:47:31;;;;;;;19.42;16.13;;;6.70;99.90;;;;;;2122728;27;20022;-78
2020/12/03 03:48:32;;;;;;;18.30;16.05;;;6.80;99.90;;;;;;2113318;28;20072;-78
2020/12/03 03:49:32;;;;;;;17.88;15.95;;;6.80;99.90;;;;;;2113130;28;20531;-80
2020/12/03 03:50:33;;;;;;;17.55;15.32;;;6.70;99.90;;;;;;2122978;27;20027;-78
2020/12/03 03:51:34;;;;;;;16.75;14.88;;;6.70;99.90;;;;;;2121887;27;20015;-78
2020/12/03 03:52:34;;;;;;;19.10;16.65;;;6.80;99.90;;;;;;2122977;27;20062;-79
2020/12/03 03:53:35;;;;;;;17.13;15.32;;;6.70;99.90;;;;;;2122733;27;20030;-78
2020/12/03 03:54:35;;;;;;;18.50;16.35;;;6.70;99.90;;;;;;2113678;28;20076;-79
2020/12/03 03:55:36;;;;;;;19.48;15.63;;;6.70;99.90;;;;;;2104851;28;20027;-80
2020/12/03 03:56:36;;;;;;;18.75;16.40;;;6.70;99.90;;;;;;2113585;28;20050;-81
2020/12/03 03:57:37;;;;;;;17.88;15.75;;;6.70;99.90;;;;;;2113402;28;20236;-78
2020/12/03 03:58:37;;;;;;;19.63;16.27;;;6.70;99.90;;;;;;2113540;28;20061;-81
2020/12/03 03:59:38;;;;;;;19.20;16.98;;;6.70;99.90;;;;;;2122686;27;20053;-82
2020/12/03 04:00:41;;;;;;;18.30;16.08;;;6.70;99.90;;;;;;2122291;27;20491;-79
2020/12/03 04:01:42;;;;;;;20.23;15.15;;;6.70;99.90;;;;;;2121623;27;20481;-78
2020/12/03 04:02:48;;;;;;;17.70;15.13;;;6.70;99.90;;;;;;2122123;27;20027;-80
2020/12/03 04:03:48;;;;;;;18.45;14.95;;;6.70;99.90;;;;;;2122021;27;20027;-78
2020/12/03 04:04:49;;;;;;;17.35;15.45;;;6.70;99.90;;;;;;2121925;27;20023;-78
2020/12/03 04:05:52;;;;;;;17.63;15.45;;;6.70;99.90;;;;;;2112907;28;20016;-80
2020/12/03 04:06:53;;;;;;;18.45;15.90;;;6.70;99.90;;;;;;2113316;28;20068;-83
2020/12/03 04:07:53;;;;;;;17.65;15.75;;;6.70;99.90;;;;;;2112611;28;20076;-77
2020/12/03 04:08:54;;;;;;;17.92;15.85;;;6.70;99.90;;;;;;2112994;28;20028;-83
2020/12/03 04:09:54;;;;;;;18.90;16.42;;;6.70;99.90;;;;;;2113009;28;20158;-78
2020/12/03 04:10:55;;;;;;;19.33;16.02;;;6.70;99.90;;;;;;2112878;28;20015;-81
2020/12/03 04:11:56;;;;;;;17.55;15.65;;;6.70;99.90;;;;;;2112501;28;20027;-78
2020/12/03 04:12:56;;;;;;;16.38;14.68;;;6.70;99.90;;;;;;2121995;27;20031;-79
2020/12/03 04:13:57;;;;;;;17.77;15.77;;;6.70;99.90;;;;;;2121447;27;20023;-79
2020/12/03 04:15:00;;;;;;;19.20;15.82;;;6.70;99.90;;;;;;2122021;27;20035;-83
2020/12/03 04:16:01;;;;;;;18.02;15.30;;;6.70;99.90;;;;;;2122090;27;20482;-80
2020/12/03 04:17:01;;;;;;;19.00;15.38;;;6.70;99.90;;;;;;2121732;27;20026;-79
2020/12/03 04:18:02;;;;;;;17.67;15.65;;;6.70;99.90;;;;;;2121967;27;20030;-81
2020/12/03 04:19:03;;;;;;;17.70;15.57;;;6.70;99.90;;;;;;2121890;27;20132;-81
2020/12/03 04:20:06;;;;;;;17.05;15.05;;;6.70;99.90;;;;;;2121576;27;20371;-81
2020/12/03 04:21:09;;;;;;;19.02;15.05;;;6.70;99.90;;;;;;2121789;27;20072;-80
2020/12/03 04:22:09;;;;;;;16.75;14.43;;;6.70;99.90;;;;;;2121714;27;20023;-79
2020/12/03 04:23:11;;;;;;;17.70;15.05;;;6.80;99.90;;;;;;2121856;28;20027;-81
2020/12/03 04:24:11;;;;;;;18.45;14.18;;;6.80;99.90;;;;;;2121696;28;20023;-79
2020/12/03 04:25:15;;;;;;;19.75;15.30;;;6.80;99.90;;;;;;2112877;28;20572;-80
2020/12/03 04:26:16;;;;;;;17.70;15.82;;;6.70;99.90;;;;;;2113469;28;20015;-81
2020/12/03 04:27:16;;;;;;;16.90;15.07;;;6.70;99.90;;;;;;2120818;27;20520;-78
2020/12/03 04:28:18;;;;;;;17.75;14.75;;;6.70;99.90;;;;;;2112844;28;20049;-79
2020/12/03 04:29:19;;;;;;;17.40;15.52;;;6.70;99.90;;;;;;2112628;28;20039;-78
2020/12/03 04:30:19;;;;;;;17.83;14.98;;;6.80;99.90;;;;;;2112546;28;20059;-78
2020/12/03 04:31:20;;;;;;;16.63;14.68;;;6.80;99.90;;;;;;2112580;28;20038;-81
2020/12/03 04:32:20;;;;;;;20.13;15.35;;;6.80;99.90;;;;;;2121582;28;20024;-81
2020/12/03 04:33:21;;;;;;;16.45;14.43;;;6.80;99.90;;;;;;2121841;28;20375;-79
2020/12/03 04:34:22;;;;;;;17.05;14.82;;;6.80;99.90;;;;;;2121954;28;20091;-81
2020/12/03 04:35:22;;;;;;;15.30;13.38;;;6.80;99.90;;;;;;2121502;28;20031;-80
2020/12/03 04:36:23;;;;;;;18.63;14.85;;;6.80;99.90;;;;;;2121660;28;20023;-78
2020/12/03 04:37:23;;;;;;;17.42;14.95;;;6.80;99.90;;;;;;2121162;28;20076;-79
2020/12/03 04:38:24;;;;;;;15.38;13.73;;;6.80;99.90;;;;;;2121727;28;20030;-79
2020/12/03 04:39:25;;;;;;;15.68;13.32;;;6.80;99.90;;;;;;2121389;28;20444;-82
2020/12/03 04:40:29;;;;;;;17.60;13.82;;;6.80;99.90;;;;;;2121866;28;20444;-82
2020/12/03 04:41:29;;;;;;;16.27;14.23;;;6.80;99.90;;;;;;2121425;28;20053;-80
2020/12/03 04:42:34;;;;;;;18.27;13.85;;;6.80;99.90;;;;;;2121867;28;20121;-80
2020/12/03 04:44:00;;;;;;;16.67;14.52;;;6.80;99.90;;;;;;2121295;28;20479;-82
2020/12/03 04:45:24;;;;;;;17.58;13.80;;;6.80;99.90;;;;;;2104139;28;20046;-81
2020/12/03 04:46:35;;;;;;;17.77;14.25;;;6.80;99.90;;;;;;2115190;28;20046;-79
2020/12/03 04:47:39;;;;;;;16.38;14.10;;;6.70;99.90;;;;;;2112317;28;20015;-81
2020/12/03 04:49:23;;;;;;;15.93;14.10;;;6.80;99.90;;;;;;2113147;28;20042;-81
2020/12/03 04:50:29;;;;;;;14.95;13.15;;;6.80;99.90;;;;;;2115512;28;20058;-81
2020/12/03 04:52:11;;;;;;;16.30;14.18;;;6.70;99.90;;;;;;2121505;28;20034;-79
2020/12/03 04:53:36;;;;;;;14.40;12.90;;;6.70;99.90;;;;;;2086779;28;20516;-81
2020/12/03 04:54:53;;;;;;;15.73;13.30;;;6.70;99.90;;;;;;2087041;28;20409;-81
2020/12/03 04:56:04;;;;;;;15.90;13.18;;;6.70;99.90;;;;;;2086748;28;20028;-78
2020/12/03 04:57:42;;;;;;;14.63;13.10;;;6.70;99.90;;;;;;2087068;28;20096;-79
2020/12/03 04:58:59;;;;;;;16.88;13.82;;;6.60;99.90;;;;;;2098739;28;20043;-81
2020/12/03 05:00:20;;;;;;;14.23;12.63;;;6.70;99.90;;;;;;2121584;28;20084;-81
2020/12/03 05:01:39;;;;;;;15.07;13.10;;;6.70;99.90;;;;;;2112402;28;20376;-77
2020/12/03 05:03:12;;;;;;;15.82;12.13;;;6.60;99.90;;;;;;2106340;28;20366;-80
2020/12/03 05:04:47;;;;;;;15.55;13.32;;;6.60;99.90;;;;;;2108403;28;20118;-81
2020/12/03 05:05:58;;;;;;;13.98;12.25;;;6.70;99.90;;;;;;2116870;28;20495;-81
2020/12/03 05:07:04;;;;;;;14.85;13.23;;;6.70;99.90;;;;;;2121660;28;20106;-79
2020/12/03 05:08:13;;;;;;;15.18;13.57;;;6.70;99.90;;;;;;2121552;28;20344;-81
2020/12/03 05:09:20;;;;;;;14.25;12.73;;;6.70;99.90;;;;;;2121868;28;20176;-81
2020/12/03 05:10:43;;;;;;;16.27;13.23;;;6.70;99.90;;;;;;2121597;28;20016;-81
2020/12/03 05:12:16;;;;;;;15.05;12.60;;;6.60;99.90;;;;;;2108310;28;20030;-77
2020/12/03 05:13:19;;;;;;;13.85;12.32;;;6.60;99.90;;;;;;2108033;28;20032;-80
2020/12/03 05:14:40;;;;;;;14.07;12.25;;;6.70;99.90;;;;;;2112613;28;20035;-78
2020/12/03 05:15:41;;;;;;;13.95;12.45;;;6.60;99.90;;;;;;2121444;28;20057;-78
2020/12/03 05:17:19;;;;;;;14.88;12.57;;;6.60;99.90;;;;;;2112545;28;20048;-79
2020/12/03 05:18:44;;;;;;;13.55;11.73;;;6.60;99.90;;;;;;2118006;28;20035;-79
2020/12/03 05:20:10;;;;;;;14.90;13.30;;;6.60;99.90;;;;;;2121318;28;20047;-78
2020/12/03 05:21:22;;;;;;;12.75;11.25;;;6.50;99.90;;;;;;2112177;28;20039;-77
2020/12/03 05:22:23;;;;;;;15.30;12.07;;;6.60;99.90;;;;;;2114081;28;20472;-82
2020/12/03 05:23:33;;;;;;;13.02;11.73;;;6.50;99.90;;;;;;2121549;28;20062;-80
2020/12/03 05:24:33;;;;;;;12.68;11.38;;;6.60;99.90;;;;;;2121499;28;20032;-81
2020/12/03 05:25:34;;;;;;;13.02;11.63;;;6.60;99.90;;;;;;2121182;28;20023;-78